sensor_id;sensor_type;location;lat;lon;timestamp;P1;durP1;ratioP1;P2;durP2;ratioP2
2546;SDS011;1283;47.982;7.834;2023-05-10T00:02:21;1.55;;;0.80;;
2546;SDS011;1283;47.982;7.834;2023-05-10T00:04:47;2.67;;;0.90;;
2546;SDS011;1283;47.982;7.834;2023-05-10T00:07:14;0.95;;;0.80;;
2546;SDS011;1283;47.982;7.834;2023-05-10T00:09:42;1.70;;;0.82;;
2546;SDS011;1283;47.982;7.834;2023-05-10T00:12:08;1.25;;;1.00;;
2546;SDS011;1283;47.982;7.834;2023-05-10T00:14:36;1.13;;;0.93;;
2546;SDS011;1283;47.982;7.834;2023-05-10T00:17:03;1.50;;;0.90;;
2546;SDS011;1283;47.982;7.834;2023-05-10T00:19:29;2.38;;;0.85;;
2546;SDS011;1283;47.982;7.834;2023-05-10T00:21:56;2.20;;;0.90;;
2546;SDS011;1283;47.982;7.834;2023-05-10T00:24:22;7.35;;;1.00;;
2546;SDS011;1283;47.982;7.834;2023-05-10T00:26:48;0.70;;;0.60;;
2546;SDS011;1283;47.982;7.834;2023-05-10T00:29:15;4.43;;;0.98;;
2546;SDS011;1283;47.982;7.834;2023-05-10T00:31:43;1.35;;;1.00;;
2546;SDS011;1283;47.982;7.834;2023-05-10T00:34:10;2.95;;;0.80;;
2546;SDS011;1283;47.982;7.834;2023-05-10T00:36:36;3.30;;;1.63;;
2546;SDS011;1283;47.982;7.834;2023-05-10T00:39:05;1.30;;;0.82;;
2546;SDS011;1283;47.982;7.834;2023-05-10T00:41:32;1.35;;;0.90;;
2546;SDS011;1283;47.982;7.834;2023-05-10T00:43:59;1.17;;;0.98;;
2546;SDS011;1283;47.982;7.834;2023-05-10T00:46:27;0.98;;;0.88;;
2546;SDS011;1283;47.982;7.834;2023-05-10T00:48:54;2.20;;;0.85;;
2546;SDS011;1283;47.982;7.834;2023-05-10T00:51:21;0.98;;;0.85;;
2546;SDS011;1283;47.982;7.834;2023-05-10T00:53:47;1.40;;;0.90;;
2546;SDS011;1283;47.982;7.834;2023-05-10T00:56:15;6.72;;;0.90;;
2546;SDS011;1283;47.982;7.834;2023-05-10T00:58:45;2.85;;;0.90;;
2546;SDS011;1283;47.982;7.834;2023-05-10T01:01:12;3.03;;;0.90;;
2546;SDS011;1283;47.982;7.834;2023-05-10T01:03:38;1.17;;;0.80;;
2546;SDS011;1283;47.982;7.834;2023-05-10T01:06:07;3.78;;;1.13;;
2546;SDS011;1283;47.982;7.834;2023-05-10T01:08:34;2.88;;;0.80;;
2546;SDS011;1283;47.982;7.834;2023-05-10T01:11:01;2.45;;;0.90;;
2546;SDS011;1283;47.982;7.834;2023-05-10T01:13:30;1.33;;;1.10;;
2546;SDS011;1283;47.982;7.834;2023-05-10T01:15:58;5.75;;;1.30;;
2546;SDS011;1283;47.982;7.834;2023-05-10T01:18:26;2.55;;;1.15;;
2546;SDS011;1283;47.982;7.834;2023-05-10T01:20:55;3.13;;;1.20;;
2546;SDS011;1283;47.982;7.834;2023-05-10T01:23:34;2.30;;;1.10;;
2546;SDS011;1283;47.982;7.834;2023-05-10T01:26:14;1.52;;;1.15;;
2546;SDS011;1283;47.982;7.834;2023-05-10T01:31:57;1.55;;;1.25;;
2546;SDS011;1283;47.982;7.834;2023-05-10T01:34:30;6.53;;;1.58;;
2546;SDS011;1283;47.982;7.834;2023-05-10T01:39:32;1.70;;;1.50;;
2546;SDS011;1283;47.982;7.834;2023-05-10T01:42:10;1.60;;;1.30;;
2546;SDS011;1283;47.982;7.834;2023-05-10T01:44:38;3.75;;;1.25;;
2546;SDS011;1283;47.982;7.834;2023-05-10T01:47:09;2.17;;;1.50;;
2546;SDS011;1283;47.982;7.834;2023-05-10T01:49:38;1.50;;;1.40;;
2546;SDS011;1283;47.982;7.834;2023-05-10T01:52:08;1.63;;;1.52;;
2546;SDS011;1283;47.982;7.834;2023-05-10T01:54:36;2.05;;;1.10;;
2546;SDS011;1283;47.982;7.834;2023-05-10T01:57:05;1.80;;;1.40;;
2546;SDS011;1283;47.982;7.834;2023-05-10T01:59:33;2.58;;;1.30;;
2546;SDS011;1283;47.982;7.834;2023-05-10T02:02:06;2.80;;;1.40;;
2546;SDS011;1283;47.982;7.834;2023-05-10T02:04:36;2.67;;;1.20;;
2546;SDS011;1283;47.982;7.834;2023-05-10T02:07:03;2.78;;;1.20;;
2546;SDS011;1283;47.982;7.834;2023-05-10T02:09:30;7.43;;;1.48;;
2546;SDS011;1283;47.982;7.834;2023-05-10T02:11:58;3.33;;;1.25;;
2546;SDS011;1283;47.982;7.834;2023-05-10T02:14:26;3.67;;;1.38;;
2546;SDS011;1283;47.982;7.834;2023-05-10T02:16:53;3.88;;;1.20;;
2546;SDS011;1283;47.982;7.834;2023-05-10T02:19:21;3.80;;;1.15;;
2546;SDS011;1283;47.982;7.834;2023-05-10T02:21:48;1.73;;;1.10;;
2546;SDS011;1283;47.982;7.834;2023-05-10T02:24:16;1.98;;;1.00;;
2546;SDS011;1283;47.982;7.834;2023-05-10T02:26:43;1.33;;;1.10;;
2546;SDS011;1283;47.982;7.834;2023-05-10T02:29:10;2.17;;;1.30;;
2546;SDS011;1283;47.982;7.834;2023-05-10T02:31:37;1.33;;;1.20;;
2546;SDS011;1283;47.982;7.834;2023-05-10T02:34:04;1.40;;;1.10;;
2546;SDS011;1283;47.982;7.834;2023-05-10T02:36:34;1.65;;;1.35;;
2546;SDS011;1283;47.982;7.834;2023-05-10T02:39:01;2.92;;;1.10;;
2546;SDS011;1283;47.982;7.834;2023-05-10T02:41:29;3.53;;;1.10;;
2546;SDS011;1283;47.982;7.834;2023-05-10T02:43:57;1.25;;;1.15;;
2546;SDS011;1283;47.982;7.834;2023-05-10T02:46:26;2.22;;;1.60;;
2546;SDS011;1283;47.982;7.834;2023-05-10T02:48:52;4.47;;;1.45;;
2546;SDS011;1283;47.982;7.834;2023-05-10T02:51:19;3.20;;;1.20;;
2546;SDS011;1283;47.982;7.834;2023-05-10T02:53:54;1.88;;;1.10;;
2546;SDS011;1283;47.982;7.834;2023-05-10T02:56:23;2.88;;;1.33;;
2546;SDS011;1283;47.982;7.834;2023-05-10T02:58:51;6.57;;;1.33;;
2546;SDS011;1283;47.982;7.834;2023-05-10T03:01:18;1.27;;;1.13;;
2546;SDS011;1283;47.982;7.834;2023-05-10T03:03:44;1.40;;;1.15;;
2546;SDS011;1283;47.982;7.834;2023-05-10T03:06:11;1.27;;;1.17;;
2546;SDS011;1283;47.982;7.834;2023-05-10T03:08:37;5.68;;;1.10;;
2546;SDS011;1283;47.982;7.834;2023-05-10T03:11:26;3.00;;;1.00;;
2546;SDS011;1283;47.982;7.834;2023-05-10T03:14:02;5.18;;;1.20;;
2546;SDS011;1283;47.982;7.834;2023-05-10T03:16:41;1.98;;;1.58;;
2546;SDS011;1283;47.982;7.834;2023-05-10T03:19:12;4.03;;;1.40;;
2546;SDS011;1283;47.982;7.834;2023-05-10T03:21:43;5.22;;;1.75;;
2546;SDS011;1283;47.982;7.834;2023-05-10T03:24:13;2.45;;;1.33;;
2546;SDS011;1283;47.982;7.834;2023-05-10T03:26:42;3.10;;;1.40;;
2546;SDS011;1283;47.982;7.834;2023-05-10T03:29:09;4.15;;;1.38;;
2546;SDS011;1283;47.982;7.834;2023-05-10T03:31:36;3.05;;;1.45;;
2546;SDS011;1283;47.982;7.834;2023-05-10T03:34:04;3.20;;;1.50;;
2546;SDS011;1283;47.982;7.834;2023-05-10T03:36:31;2.90;;;1.38;;
2546;SDS011;1283;47.982;7.834;2023-05-10T03:38:58;3.20;;;1.58;;
2546;SDS011;1283;47.982;7.834;2023-05-10T03:41:24;5.47;;;1.63;;
2546;SDS011;1283;47.982;7.834;2023-05-10T03:43:52;1.65;;;1.35;;
2546;SDS011;1283;47.982;7.834;2023-05-10T03:46:18;2.63;;;1.63;;
2546;SDS011;1283;47.982;7.834;2023-05-10T03:48:45;2.40;;;1.73;;
2546;SDS011;1283;47.982;7.834;2023-05-10T03:51:11;2.85;;;1.58;;
2546;SDS011;1283;47.982;7.834;2023-05-10T03:53:38;2.00;;;1.35;;
2546;SDS011;1283;47.982;7.834;2023-05-10T03:56:04;4.25;;;1.50;;
2546;SDS011;1283;47.982;7.834;2023-05-10T03:58:31;4.65;;;1.40;;
2546;SDS011;1283;47.982;7.834;2023-05-10T04:00:59;2.78;;;1.30;;
2546;SDS011;1283;47.982;7.834;2023-05-10T04:03:25;1.70;;;1.42;;
2546;SDS011;1283;47.982;7.834;2023-05-10T04:05:58;2.60;;;1.55;;
2546;SDS011;1283;47.982;7.834;2023-05-10T04:08:25;2.67;;;1.65;;
2546;SDS011;1283;47.982;7.834;2023-05-10T04:10:51;12.73;;;1.50;;
2546;SDS011;1283;47.982;7.834;2023-05-10T04:13:18;1.92;;;1.30;;
2546;SDS011;1283;47.982;7.834;2023-05-10T04:15:44;1.77;;;1.13;;
2546;SDS011;1283;47.982;7.834;2023-05-10T04:18:12;5.25;;;1.25;;
2546;SDS011;1283;47.982;7.834;2023-05-10T04:20:39;2.42;;;1.27;;
2546;SDS011;1283;47.982;7.834;2023-05-10T04:23:05;5.22;;;1.35;;
2546;SDS011;1283;47.982;7.834;2023-05-10T04:25:33;2.33;;;1.42;;
2546;SDS011;1283;47.982;7.834;2023-05-10T04:28:00;5.55;;;1.40;;
2546;SDS011;1283;47.982;7.834;2023-05-10T04:30:26;2.17;;;1.38;;
2546;SDS011;1283;47.982;7.834;2023-05-10T04:32:54;3.72;;;1.10;;
2546;SDS011;1283;47.982;7.834;2023-05-10T04:35:22;1.63;;;1.20;;
2546;SDS011;1283;47.982;7.834;2023-05-10T04:37:48;2.58;;;1.25;;
2546;SDS011;1283;47.982;7.834;2023-05-10T04:40:15;1.50;;;1.17;;
2546;SDS011;1283;47.982;7.834;2023-05-10T04:42:41;2.10;;;1.10;;
2546;SDS011;1283;47.982;7.834;2023-05-10T04:45:08;1.40;;;1.30;;
2546;SDS011;1283;47.982;7.834;2023-05-10T04:47:35;2.20;;;1.27;;
2546;SDS011;1283;47.982;7.834;2023-05-10T04:50:02;3.50;;;1.40;;
2546;SDS011;1283;47.982;7.834;2023-05-10T04:52:31;4.10;;;1.80;;
2546;SDS011;1283;47.982;7.834;2023-05-10T04:54:57;6.65;;;1.50;;
2546;SDS011;1283;47.982;7.834;2023-05-10T04:57:24;3.58;;;1.50;;
2546;SDS011;1283;47.982;7.834;2023-05-10T04:59:50;2.03;;;1.40;;
2546;SDS011;1283;47.982;7.834;2023-05-10T05:02:17;5.60;;;1.52;;
2546;SDS011;1283;47.982;7.834;2023-05-10T05:04:43;3.65;;;1.50;;
2546;SDS011;1283;47.982;7.834;2023-05-10T05:07:10;7.63;;;1.58;;
2546;SDS011;1283;47.982;7.834;2023-05-10T05:09:37;2.28;;;1.50;;
2546;SDS011;1283;47.982;7.834;2023-05-10T05:12:04;4.38;;;1.40;;
2546;SDS011;1283;47.982;7.834;2023-05-10T05:14:31;2.50;;;1.33;;
2546;SDS011;1283;47.982;7.834;2023-05-10T05:16:57;2.33;;;1.55;;
2546;SDS011;1283;47.982;7.834;2023-05-10T05:19:24;3.25;;;1.77;;
2546;SDS011;1283;47.982;7.834;2023-05-10T05:21:50;2.13;;;1.63;;
2546;SDS011;1283;47.982;7.834;2023-05-10T05:24:17;5.30;;;1.70;;
2546;SDS011;1283;47.982;7.834;2023-05-10T05:26:45;3.45;;;1.38;;
2546;SDS011;1283;47.982;7.834;2023-05-10T05:29:11;2.35;;;1.40;;
2546;SDS011;1283;47.982;7.834;2023-05-10T05:31:37;2.80;;;1.38;;
2546;SDS011;1283;47.982;7.834;2023-05-10T05:34:04;2.80;;;1.60;;
2546;SDS011;1283;47.982;7.834;2023-05-10T05:36:31;2.63;;;1.42;;
2546;SDS011;1283;47.982;7.834;2023-05-10T05:38:57;3.15;;;1.55;;
2546;SDS011;1283;47.982;7.834;2023-05-10T05:41:24;1.88;;;1.50;;
2546;SDS011;1283;47.982;7.834;2023-05-10T05:43:52;2.53;;;1.20;;
2546;SDS011;1283;47.982;7.834;2023-05-10T05:46:18;1.77;;;1.30;;
2546;SDS011;1283;47.982;7.834;2023-05-10T05:48:45;1.50;;;1.23;;
2546;SDS011;1283;47.982;7.834;2023-05-10T05:51:11;2.15;;;1.20;;
2546;SDS011;1283;47.982;7.834;2023-05-10T05:53:38;5.53;;;1.30;;
2546;SDS011;1283;47.982;7.834;2023-05-10T05:56:04;3.78;;;1.60;;
2546;SDS011;1283;47.982;7.834;2023-05-10T05:58:31;2.78;;;1.30;;
2546;SDS011;1283;47.982;7.834;2023-05-10T06:00:59;2.65;;;1.10;;
2546;SDS011;1283;47.982;7.834;2023-05-10T06:03:25;5.03;;;1.00;;
2546;SDS011;1283;47.982;7.834;2023-05-10T06:05:52;2.55;;;0.95;;
2546;SDS011;1283;47.982;7.834;2023-05-10T06:08:18;5.13;;;1.30;;
2546;SDS011;1283;47.982;7.834;2023-05-10T06:10:45;2.40;;;1.20;;
2546;SDS011;1283;47.982;7.834;2023-05-10T06:13:11;1.30;;;1.17;;
2546;SDS011;1283;47.982;7.834;2023-05-10T06:15:38;1.60;;;1.10;;
2546;SDS011;1283;47.982;7.834;2023-05-10T06:18:06;3.88;;;1.33;;
2546;SDS011;1283;47.982;7.834;2023-05-10T06:20:32;3.50;;;1.30;;
2546;SDS011;1283;47.982;7.834;2023-05-10T06:22:58;3.35;;;1.40;;
2546;SDS011;1283;47.982;7.834;2023-05-10T06:25:25;4.68;;;1.52;;
2546;SDS011;1283;47.982;7.834;2023-05-10T06:27:52;5.18;;;1.40;;
2546;SDS011;1283;47.982;7.834;2023-05-10T06:30:22;3.20;;;1.35;;
2546;SDS011;1283;47.982;7.834;2023-05-10T06:32:52;4.80;;;1.30;;
2546;SDS011;1283;47.982;7.834;2023-05-10T06:35:20;2.00;;;1.20;;
2546;SDS011;1283;47.982;7.834;2023-05-10T06:37:47;2.92;;;1.35;;
2546;SDS011;1283;47.982;7.834;2023-05-10T06:40:13;4.85;;;1.50;;
2546;SDS011;1283;47.982;7.834;2023-05-10T06:42:40;5.10;;;1.98;;
2546;SDS011;1283;47.982;7.834;2023-05-10T06:45:07;2.97;;;1.40;;
2546;SDS011;1283;47.982;7.834;2023-05-10T06:47:34;3.42;;;1.23;;
2546;SDS011;1283;47.982;7.834;2023-05-10T06:50:01;1.63;;;1.27;;
2546;SDS011;1283;47.982;7.834;2023-05-10T06:52:29;3.83;;;1.80;;
2546;SDS011;1283;47.982;7.834;2023-05-10T06:54:56;5.65;;;1.40;;
2546;SDS011;1283;47.982;7.834;2023-05-10T06:57:23;4.13;;;1.60;;
2546;SDS011;1283;47.982;7.834;2023-05-10T06:59:49;4.38;;;1.48;;
2546;SDS011;1283;47.982;7.834;2023-05-10T07:02:16;7.78;;;1.45;;
2546;SDS011;1283;47.982;7.834;2023-05-10T07:04:43;2.70;;;1.55;;
2546;SDS011;1283;47.982;7.834;2023-05-10T07:07:09;2.95;;;1.30;;
2546;SDS011;1283;47.982;7.834;2023-05-10T07:09:37;7.72;;;2.17;;
2546;SDS011;1283;47.982;7.834;2023-05-10T07:12:03;3.72;;;1.35;;
2546;SDS011;1283;47.982;7.834;2023-05-10T07:14:30;1.63;;;1.17;;
2546;SDS011;1283;47.982;7.834;2023-05-10T07:16:56;2.13;;;1.20;;
2546;SDS011;1283;47.982;7.834;2023-05-10T07:19:23;2.88;;;1.30;;
2546;SDS011;1283;47.982;7.834;2023-05-10T07:21:49;3.45;;;1.45;;
2546;SDS011;1283;47.982;7.834;2023-05-10T07:24:16;1.83;;;1.27;;
2546;SDS011;1283;47.982;7.834;2023-05-10T07:26:44;4.70;;;1.58;;
2546;SDS011;1283;47.982;7.834;2023-05-10T07:29:11;5.00;;;1.73;;
2546;SDS011;1283;47.982;7.834;2023-05-10T07:31:37;3.55;;;1.25;;
2546;SDS011;1283;47.982;7.834;2023-05-10T07:34:06;2.13;;;1.15;;
2546;SDS011;1283;47.982;7.834;2023-05-10T07:36:33;2.65;;;1.30;;
2546;SDS011;1283;47.982;7.834;2023-05-10T07:39:00;4.57;;;1.40;;
2546;SDS011;1283;47.982;7.834;2023-05-10T07:41:26;4.55;;;1.40;;
2546;SDS011;1283;47.982;7.834;2023-05-10T07:43:54;5.45;;;1.48;;
2546;SDS011;1283;47.982;7.834;2023-05-10T07:46:21;2.63;;;1.50;;
2546;SDS011;1283;47.982;7.834;2023-05-10T07:48:47;2.50;;;1.08;;
2546;SDS011;1283;47.982;7.834;2023-05-10T07:51:14;4.20;;;1.20;;
2546;SDS011;1283;47.982;7.834;2023-05-10T07:53:40;4.00;;;1.50;;
2546;SDS011;1283;47.982;7.834;2023-05-10T07:56:20;5.57;;;1.30;;
2546;SDS011;1283;47.982;7.834;2023-05-10T07:58:49;1.45;;;1.15;;
2546;SDS011;1283;47.982;7.834;2023-05-10T08:01:17;3.13;;;1.08;;
2546;SDS011;1283;47.982;7.834;2023-05-10T08:03:44;5.90;;;1.55;;
2546;SDS011;1283;47.982;7.834;2023-05-10T08:06:10;2.30;;;1.38;;
2546;SDS011;1283;47.982;7.834;2023-05-10T08:08:37;4.82;;;1.35;;
2546;SDS011;1283;47.982;7.834;2023-05-10T08:11:03;4.45;;;1.45;;
2546;SDS011;1283;47.982;7.834;2023-05-10T08:13:30;5.25;;;0.93;;
2546;SDS011;1283;47.982;7.834;2023-05-10T08:15:57;2.85;;;1.25;;
2546;SDS011;1283;47.982;7.834;2023-05-10T08:18:25;3.47;;;1.13;;
2546;SDS011;1283;47.982;7.834;2023-05-10T08:20:51;1.92;;;0.98;;
2546;SDS011;1283;47.982;7.834;2023-05-10T08:23:17;2.38;;;0.93;;
2546;SDS011;1283;47.982;7.834;2023-05-10T08:25:44;1.90;;;1.05;;
2546;SDS011;1283;47.982;7.834;2023-05-10T08:28:10;2.83;;;1.20;;
2546;SDS011;1283;47.982;7.834;2023-05-10T08:30:37;6.63;;;1.23;;
2546;SDS011;1283;47.982;7.834;2023-05-10T08:33:03;2.25;;;0.93;;
2546;SDS011;1283;47.982;7.834;2023-05-10T08:35:31;2.30;;;0.93;;
2546;SDS011;1283;47.982;7.834;2023-05-10T08:37:58;3.78;;;1.23;;
2546;SDS011;1283;47.982;7.834;2023-05-10T08:40:24;7.75;;;1.13;;
2546;SDS011;1283;47.982;7.834;2023-05-10T08:42:54;2.15;;;0.95;;
2546;SDS011;1283;47.982;7.834;2023-05-10T08:45:26;6.50;;;1.10;;
2546;SDS011;1283;47.982;7.834;2023-05-10T08:47:56;5.22;;;1.00;;
2546;SDS011;1283;47.982;7.834;2023-05-10T08:50:22;6.53;;;0.90;;
2546;SDS011;1283;47.982;7.834;2023-05-10T08:52:51;2.55;;;0.73;;
2546;SDS011;1283;47.982;7.834;2023-05-10T08:55:19;3.35;;;0.93;;
2546;SDS011;1283;47.982;7.834;2023-05-10T08:57:46;1.50;;;0.90;;
2546;SDS011;1283;47.982;7.834;2023-05-10T09:00:13;5.97;;;0.93;;
2546;SDS011;1283;47.982;7.834;2023-05-10T09:02:40;3.30;;;0.85;;
2546;SDS011;1283;47.982;7.834;2023-05-10T09:05:07;1.70;;;0.95;;
2546;SDS011;1283;47.982;7.834;2023-05-10T09:07:35;15.07;;;1.15;;
2546;SDS011;1283;47.982;7.834;2023-05-10T09:10:03;3.17;;;0.95;;
2546;SDS011;1283;47.982;7.834;2023-05-10T09:12:30;5.60;;;1.15;;
2546;SDS011;1283;47.982;7.834;2023-05-10T09:14:57;4.88;;;1.02;;
2546;SDS011;1283;47.982;7.834;2023-05-10T09:17:26;3.83;;;0.85;;
2546;SDS011;1283;47.982;7.834;2023-05-10T09:19:56;6.85;;;1.13;;
2546;SDS011;1283;47.982;7.834;2023-05-10T09:22:23;6.82;;;1.00;;
2546;SDS011;1283;47.982;7.834;2023-05-10T09:25:04;3.13;;;0.70;;
2546;SDS011;1283;47.982;7.834;2023-05-10T09:27:31;4.03;;;1.15;;
2546;SDS011;1283;47.982;7.834;2023-05-10T09:29:58;5.43;;;1.65;;
2546;SDS011;1283;47.982;7.834;2023-05-10T09:32:35;5.53;;;1.15;;
2546;SDS011;1283;47.982;7.834;2023-05-10T09:35:05;7.85;;;0.77;;
2546;SDS011;1283;47.982;7.834;2023-05-10T09:37:33;2.05;;;0.73;;
2546;SDS011;1283;47.982;7.834;2023-05-10T09:39:59;5.78;;;0.85;;
2546;SDS011;1283;47.982;7.834;2023-05-10T09:42:27;5.55;;;1.00;;
2546;SDS011;1283;47.982;7.834;2023-05-10T09:44:53;5.53;;;0.63;;
2546;SDS011;1283;47.982;7.834;2023-05-10T09:47:19;3.38;;;0.70;;
2546;SDS011;1283;47.982;7.834;2023-05-10T09:49:48;3.75;;;0.73;;
2546;SDS011;1283;47.982;7.834;2023-05-10T09:52:15;9.25;;;1.50;;
2546;SDS011;1283;47.982;7.834;2023-05-10T09:54:44;3.92;;;0.80;;
2546;SDS011;1283;47.982;7.834;2023-05-10T09:57:18;4.55;;;0.68;;
2546;SDS011;1283;47.982;7.834;2023-05-10T09:59:48;3.35;;;0.75;;
2546;SDS011;1283;47.982;7.834;2023-05-10T10:02:15;3.45;;;0.50;;
2546;SDS011;1283;47.982;7.834;2023-05-10T10:04:42;1.73;;;0.80;;
2546;SDS011;1283;47.982;7.834;2023-05-10T10:07:09;1.13;;;0.40;;
2546;SDS011;1283;47.982;7.834;2023-05-10T10:09:35;1.70;;;0.68;;
2546;SDS011;1283;47.982;7.834;2023-05-10T10:12:02;1.60;;;0.50;;
2546;SDS011;1283;47.982;7.834;2023-05-10T10:14:29;3.88;;;0.82;;
2546;SDS011;1283;47.982;7.834;2023-05-10T10:16:57;2.42;;;0.73;;
2546;SDS011;1283;47.982;7.834;2023-05-10T10:19:26;1.17;;;0.60;;
2546;SDS011;1283;47.982;7.834;2023-05-10T10:21:53;2.30;;;0.50;;
2546;SDS011;1283;47.982;7.834;2023-05-10T10:24:19;1.85;;;0.80;;
2546;SDS011;1283;47.982;7.834;2023-05-10T10:26:46;0.57;;;0.40;;
2546;SDS011;1283;47.982;7.834;2023-05-10T10:29:16;1.33;;;0.70;;
2546;SDS011;1283;47.982;7.834;2023-05-10T10:31:54;1.40;;;0.52;;
2546;SDS011;1283;47.982;7.834;2023-05-10T10:34:42;2.92;;;0.65;;
2546;SDS011;1283;47.982;7.834;2023-05-10T10:37:08;3.05;;;0.73;;
2546;SDS011;1283;47.982;7.834;2023-05-10T10:39:35;4.20;;;0.85;;
2546;SDS011;1283;47.982;7.834;2023-05-10T10:42:02;3.42;;;0.65;;
2546;SDS011;1283;47.982;7.834;2023-05-10T10:44:37;1.90;;;0.60;;
2546;SDS011;1283;47.982;7.834;2023-05-10T10:47:07;5.63;;;0.80;;
2546;SDS011;1283;47.982;7.834;2023-05-10T10:49:43;5.47;;;0.88;;
2546;SDS011;1283;47.982;7.834;2023-05-10T10:54:59;0.88;;;0.70;;
2546;SDS011;1283;47.982;7.834;2023-05-10T10:57:27;5.05;;;0.70;;
2546;SDS011;1283;47.982;7.834;2023-05-10T11:02:50;2.05;;;0.75;;
2546;SDS011;1283;47.982;7.834;2023-05-10T11:08:07;2.80;;;0.80;;
2546;SDS011;1283;47.982;7.834;2023-05-10T11:10:35;4.20;;;0.70;;
2546;SDS011;1283;47.982;7.834;2023-05-10T11:13:03;1.73;;;0.60;;
2546;SDS011;1283;47.982;7.834;2023-05-10T11:15:31;6.55;;;0.80;;
2546;SDS011;1283;47.982;7.834;2023-05-10T11:17:59;1.75;;;0.60;;
2546;SDS011;1283;47.982;7.834;2023-05-10T11:20:27;3.45;;;0.75;;
2546;SDS011;1283;47.982;7.834;2023-05-10T11:22:59;6.10;;;2.25;;
2546;SDS011;1283;47.982;7.834;2023-05-10T11:25:40;5.25;;;0.77;;
2546;SDS011;1283;47.982;7.834;2023-05-10T11:28:08;1.92;;;0.88;;
2546;SDS011;1283;47.982;7.834;2023-05-10T11:30:34;2.55;;;0.90;;
2546;SDS011;1283;47.982;7.834;2023-05-10T11:33:03;3.08;;;1.13;;
2546;SDS011;1283;47.982;7.834;2023-05-10T11:35:29;6.40;;;0.70;;
2546;SDS011;1283;47.982;7.834;2023-05-10T11:37:56;4.28;;;0.93;;
2546;SDS011;1283;47.982;7.834;2023-05-10T11:40:22;3.85;;;0.70;;
2546;SDS011;1283;47.982;7.834;2023-05-10T11:42:49;2.00;;;0.80;;
2546;SDS011;1283;47.982;7.834;2023-05-10T11:45:16;3.20;;;0.70;;
2546;SDS011;1283;47.982;7.834;2023-05-10T11:47:43;3.97;;;0.90;;
2546;SDS011;1283;47.982;7.834;2023-05-10T11:50:11;4.38;;;1.10;;
2546;SDS011;1283;47.982;7.834;2023-05-10T11:52:37;1.77;;;0.60;;
2546;SDS011;1283;47.982;7.834;2023-05-10T11:55:04;5.60;;;1.15;;
2546;SDS011;1283;47.982;7.834;2023-05-10T11:57:31;3.55;;;0.93;;
2546;SDS011;1283;47.982;7.834;2023-05-10T11:59:58;3.55;;;0.93;;
2546;SDS011;1283;47.982;7.834;2023-05-10T12:02:25;1.42;;;0.60;;
2546;SDS011;1283;47.982;7.834;2023-05-10T12:04:51;3.50;;;0.90;;
2546;SDS011;1283;47.982;7.834;2023-05-10T12:07:19;3.50;;;0.90;;
2546;SDS011;1283;47.982;7.834;2023-05-10T12:12:35;1.60;;;0.65;;
2546;SDS011;1283;47.982;7.834;2023-05-10T12:15:03;2.70;;;0.90;;
2546;SDS011;1283;47.982;7.834;2023-05-10T12:17:31;1.27;;;0.50;;
2546;SDS011;1283;47.982;7.834;2023-05-10T12:19:58;3.05;;;0.68;;
2546;SDS011;1283;47.982;7.834;2023-05-10T12:22:27;1.75;;;0.50;;
2546;SDS011;1283;47.982;7.834;2023-05-10T12:24:53;1.83;;;0.40;;
2546;SDS011;1283;47.982;7.834;2023-05-10T12:27:20;1.27;;;0.40;;
2546;SDS011;1283;47.982;7.834;2023-05-10T12:29:47;6.55;;;1.90;;
2546;SDS011;1283;47.982;7.834;2023-05-10T12:32:14;4.78;;;1.10;;
2546;SDS011;1283;47.982;7.834;2023-05-10T12:34:40;3.42;;;0.70;;
2546;SDS011;1283;47.982;7.834;2023-05-10T12:37:07;1.75;;;0.70;;
2546;SDS011;1283;47.982;7.834;2023-05-10T12:39:41;1.33;;;0.70;;
2546;SDS011;1283;47.982;7.834;2023-05-10T12:42:08;2.42;;;1.00;;
2546;SDS011;1283;47.982;7.834;2023-05-10T12:44:35;3.47;;;0.95;;
2546;SDS011;1283;47.982;7.834;2023-05-10T12:47:01;5.03;;;1.65;;
2546;SDS011;1283;47.982;7.834;2023-05-10T12:49:28;2.60;;;0.60;;
2546;SDS011;1283;47.982;7.834;2023-05-10T12:51:54;5.60;;;0.82;;
2546;SDS011;1283;47.982;7.834;2023-05-10T12:54:21;1.42;;;0.60;;
2546;SDS011;1283;47.982;7.834;2023-05-10T12:56:48;2.33;;;0.55;;
2546;SDS011;1283;47.982;7.834;2023-05-10T12:59:15;0.70;;;0.47;;
2546;SDS011;1283;47.982;7.834;2023-05-10T13:01:41;1.38;;;0.50;;
2546;SDS011;1283;47.982;7.834;2023-05-10T13:04:08;2.38;;;0.50;;
2546;SDS011;1283;47.982;7.834;2023-05-10T13:06:34;0.30;;;0.30;;
2546;SDS011;1283;47.982;7.834;2023-05-10T13:09:01;1.73;;;0.70;;
2546;SDS011;1283;47.982;7.834;2023-05-10T13:11:27;4.30;;;0.60;;
2546;SDS011;1283;47.982;7.834;2023-05-10T13:13:55;5.18;;;0.63;;
2546;SDS011;1283;47.982;7.834;2023-05-10T13:16:21;0.35;;;0.35;;
2546;SDS011;1283;47.982;7.834;2023-05-10T13:18:48;1.20;;;1.05;;
2546;SDS011;1283;47.982;7.834;2023-05-10T13:21:15;2.42;;;0.57;;
2546;SDS011;1283;47.982;7.834;2023-05-10T13:23:42;2.55;;;0.85;;
2546;SDS011;1283;47.982;7.834;2023-05-10T13:26:08;0.35;;;0.32;;
2546;SDS011;1283;47.982;7.834;2023-05-10T13:28:34;1.80;;;0.60;;
2546;SDS011;1283;47.982;7.834;2023-05-10T13:31:02;4.32;;;0.90;;
2546;SDS011;1283;47.982;7.834;2023-05-10T13:33:29;0.75;;;0.50;;
2546;SDS011;1283;47.982;7.834;2023-05-10T13:35:55;2.08;;;0.68;;
2546;SDS011;1283;47.982;7.834;2023-05-10T13:38:21;1.67;;;0.63;;
2546;SDS011;1283;47.982;7.834;2023-05-10T13:40:48;0.70;;;0.50;;
2546;SDS011;1283;47.982;7.834;2023-05-10T13:43:17;3.58;;;0.60;;
2546;SDS011;1283;47.982;7.834;2023-05-10T13:45:43;6.80;;;0.77;;
2546;SDS011;1283;47.982;7.834;2023-05-10T13:48:11;0.85;;;0.45;;
2546;SDS011;1283;47.982;7.834;2023-05-10T13:50:38;0.30;;;0.30;;
2546;SDS011;1283;47.982;7.834;2023-05-10T13:53:05;1.70;;;0.40;;
2546;SDS011;1283;47.982;7.834;2023-05-10T13:55:31;1.75;;;0.50;;
2546;SDS011;1283;47.982;7.834;2023-05-10T13:57:58;0.93;;;0.50;;
2546;SDS011;1283;47.982;7.834;2023-05-10T14:00:25;3.58;;;0.60;;
2546;SDS011;1283;47.982;7.834;2023-05-10T14:02:53;0.50;;;0.38;;
2546;SDS011;1283;47.982;7.834;2023-05-10T14:05:21;2.28;;;0.40;;
2546;SDS011;1283;47.982;7.834;2023-05-10T14:07:48;1.00;;;0.30;;
2546;SDS011;1283;47.982;7.834;2023-05-10T14:10:15;0.93;;;0.40;;
2546;SDS011;1283;47.982;7.834;2023-05-10T14:12:42;1.48;;;0.50;;
2546;SDS011;1283;47.982;7.834;2023-05-10T14:15:08;2.70;;;1.35;;
2546;SDS011;1283;47.982;7.834;2023-05-10T14:17:36;2.35;;;0.68;;
2546;SDS011;1283;47.982;7.834;2023-05-10T14:20:03;1.60;;;0.40;;
2546;SDS011;1283;47.982;7.834;2023-05-10T14:22:31;0.82;;;0.40;;
2546;SDS011;1283;47.982;7.834;2023-05-10T14:24:58;0.50;;;0.32;;
2546;SDS011;1283;47.982;7.834;2023-05-10T14:27:24;0.65;;;0.40;;
2546;SDS011;1283;47.982;7.834;2023-05-10T14:29:51;2.80;;;0.95;;
2546;SDS011;1283;47.982;7.834;2023-05-10T14:32:18;1.40;;;0.40;;
2546;SDS011;1283;47.982;7.834;2023-05-10T14:34:44;1.10;;;0.40;;
2546;SDS011;1283;47.982;7.834;2023-05-10T14:37:11;2.05;;;0.50;;
2546;SDS011;1283;47.982;7.834;2023-05-10T14:39:41;0.60;;;0.40;;
2546;SDS011;1283;47.982;7.834;2023-05-10T14:42:08;3.03;;;0.63;;
2546;SDS011;1283;47.982;7.834;2023-05-10T14:44:34;0.30;;;0.30;;
2546;SDS011;1283;47.982;7.834;2023-05-10T14:47:01;0.20;;;0.20;;
2546;SDS011;1283;47.982;7.834;2023-05-10T14:49:27;0.50;;;0.35;;
2546;SDS011;1283;47.982;7.834;2023-05-10T14:51:54;2.00;;;0.38;;
2546;SDS011;1283;47.982;7.834;2023-05-10T14:54:20;1.20;;;0.30;;
2546;SDS011;1283;47.982;7.834;2023-05-10T14:56:48;0.30;;;0.20;;
2546;SDS011;1283;47.982;7.834;2023-05-10T14:59:15;0.98;;;0.30;;
2546;SDS011;1283;47.982;7.834;2023-05-10T15:01:41;0.90;;;0.40;;
2546;SDS011;1283;47.982;7.834;2023-05-10T15:04:07;0.57;;;0.40;;
2546;SDS011;1283;47.982;7.834;2023-05-10T15:06:34;0.45;;;0.30;;
2546;SDS011;1283;47.982;7.834;2023-05-10T15:09:02;1.27;;;0.52;;
2546;SDS011;1283;47.982;7.834;2023-05-10T15:11:28;2.42;;;0.82;;
2546;SDS011;1283;47.982;7.834;2023-05-10T15:13:56;1.13;;;0.85;;
2546;SDS011;1283;47.982;7.834;2023-05-10T15:16:23;3.55;;;0.60;;
2546;SDS011;1283;47.982;7.834;2023-05-10T15:18:49;2.15;;;1.02;;
2546;SDS011;1283;47.982;7.834;2023-05-10T15:21:16;2.03;;;0.60;;
2546;SDS011;1283;47.982;7.834;2023-05-10T15:23:43;3.10;;;0.50;;
2546;SDS011;1283;47.982;7.834;2023-05-10T15:26:09;1.23;;;0.52;;
2546;SDS011;1283;47.982;7.834;2023-05-10T15:28:35;1.08;;;0.40;;
2546;SDS011;1283;47.982;7.834;2023-05-10T15:31:03;2.47;;;0.40;;
2546;SDS011;1283;47.982;7.834;2023-05-10T15:33:30;1.25;;;0.60;;
2546;SDS011;1283;47.982;7.834;2023-05-10T15:35:56;3.38;;;0.50;;